Time;durP1;ratioP1;P1;durP2;ratioP2;P2;SDS_P1;SDS_P2;PMS_P1;PMS_P2;Temp;Humidity;BMP_temperature;BMP_pressure;BME280_temperature;BME280_humidity;BME280_pressure;Samples;Min_cycle;Max_cycle;Signal;HPM_P1;HPM_P2
2022/09/10 00:00:46;;;;;;;;;;;;;;;22.83;73.77;100056.91;5383739;32;33010;-79
2022/09/10 00:03:48;;;;;;;;;;;;;;;23.08;71.97;100044.72;5380782;32;45103;-74
2022/09/10 00:06:51;;;;;;;;;;;;;;;23.04;72.79;100044.16;5363938;32;33595;-74
2022/09/10 00:09:52;;;;;;;;;;;;;;;23.03;72.64;100041.63;5379837;32;34226;-74
2022/09/10 00:12:54;;;;;;;;;;;;;;;22.55;75.81;100038.13;5371195;32;34223;-74
2022/09/10 00:15:58;;;;;;;;;;;;;;;22.91;73.86;100031.09;5380174;32;34207;-77
2022/09/10 00:19:00;;;;;;;;;;;;;;;23.36;71.66;100040.19;5370041;32;33539;-76
2022/09/10 00:22:02;;;;;;;;;;;;;;;23.58;70.77;100038.94;5372783;32;33716;-72
2022/09/10 00:25:04;;;;;;;;;;;;;;;24.00;67.80;100033.81;5379357;32;35573;-76
2022/09/10 00:28:09;;;;;;;;;;;;;;;23.86;68.54;100037.03;5373338;32;34154;-76
2022/09/10 00:31:12;;;;;;;;;;;;;;;22.27;74.47;100030.97;5391748;32;34055;-74
2022/09/10 00:34:14;;;;;;;;;;;;;;;23.05;72.58;100031.59;5366974;32;33030;-76
2022/09/10 00:37:16;;;;;;;;;;;;;;;23.58;69.92;100036.25;5387245;32;33006;-73
2022/09/10 00:40:18;;;;;;;;;;;;;;;23.08;72.96;100037.50;5378430;32;47252;-74
2022/09/10 00:43:20;;;;;;;;;;;;;;;23.27;71.68;100033.03;5373387;32;34388;-77
2022/09/10 00:46:24;;;;;;;;;;;;;;;22.86;73.28;100016.41;5394651;32;33367;-74
2022/09/10 00:49:29;;;;;;;;;;;;;;;22.13;77.46;100027.75;5352080;32;33895;-76
2022/09/10 00:52:32;;;;;;;;;;;;;;;22.20;78.88;100019.16;5379572;32;33868;-73
2022/09/10 00:55:41;;;;;;;;;;;;;;;21.62;81.94;100018.16;5362860;32;33265;-76
2022/09/10 00:58:43;;;;;;;;;;;;;;;21.74;81.05;100020.69;5379088;32;33613;-73
2022/09/10 01:01:45;;;;;;;;;;;;;;;22.80;75.83;100014.31;5384763;32;34164;-73
2022/09/10 01:04:46;;;;;;;;;;;;;;;22.93;73.48;100013.06;5350355;32;33251;-76
2022/09/10 01:07:48;;;;;;;;;;;;;;;21.79;80.58;100005.94;5377380;32;45216;-74
2022/09/10 01:11:14;;;;;;;;;;;;;;;21.48;83.18;99997.19;5362535;32;33627;-74
2022/09/10 01:14:50;;;;;;;;;;;;;;;21.79;81.22;100003.25;5377687;32;33195;-73
2022/09/10 01:17:55;;;;;;;;;;;;;;;22.73;75.66;99994.47;5353158;32;34914;-73
2022/09/10 01:21:01;;;;;;;;;;;;;;;23.55;71.58;99993.63;5364986;32;33872;-77
2022/09/10 01:24:22;;;;;;;;;;;;;;;22.70;73.73;99991.09;5383153;32;34195;-77
2022/09/10 01:27:38;;;;;;;;;;;;;;;22.29;77.72;99992.38;5368319;32;44527;-77
2022/09/10 01:30:41;;;;;;;;;;;;;;;22.26;78.62;99987.31;5387881;32;32924;-74
2022/09/10 01:33:48;;;;;;;;;;;;;;;22.10;79.55;99984.41;5367623;32;34482;-76
2022/09/10 01:36:50;;;;;;;;;;;;;;;22.92;75.67;99983.69;5366325;32;44583;-73
2022/09/10 01:39:52;;;;;;;;;;;;;;;22.60;74.00;99979.56;5379363;32;34099;-73
2022/09/10 01:43:01;;;;;;;;;;;;;;;22.90;73.19;99970.47;5373671;32;33780;-77
2022/09/10 01:46:20;;;;;;;;;;;;;;;22.46;71.62;99961.31;5390502;32;33872;-74
2022/09/10 01:49:39;;;;;;;;;;;;;;;22.05;69.37;99963.37;5363152;32;43436;-75
2022/09/10 01:52:48;;;;;;;;;;;;;;;22.42;65.13;99943.88;5362055;32;33561;-78
2022/09/10 01:55:56;;;;;;;;;;;;;;;22.19;66.19;99943.38;5327751;32;46612;-74
2022/09/10 01:58:59;;;;;;;;;;;;;;;21.84;66.98;99944.81;5366666;32;33656;-74
2022/09/10 02:02:05;;;;;;;;;;;;;;;21.92;66.50;99973.53;5391176;32;34193;-74
2022/09/10 02:05:07;;;;;;;;;;;;;;;22.03;67.06;99962.69;5352865;32;33895;-78
2022/09/10 02:08:10;;;;;;;;;;;;;;;21.60;69.33;99952.44;5369577;32;34374;-73
2022/09/10 02:11:13;;;;;;;;;;;;;;;21.18;73.03;99938.44;5367607;32;32647;-74
2022/09/10 02:14:15;;;;;;;;;;;;;;;21.13;72.15;99938.03;5358098;32;33727;-73
2022/09/10 02:17:17;;;;;;;;;;;;;;;20.73;73.04;99929.06;5379630;32;36422;-77
2022/09/10 02:20:20;;;;;;;;;;;;;;;20.96;70.71;99920.84;5362529;32;34244;-76
2022/09/10 02:23:27;;;;;;;;;;;;;;;21.46;68.28;99937.66;5373750;32;33668;-74
2022/09/10 02:26:32;;;;;;;;;;;;;;;20.92;70.08;99928.25;5378610;32;33419;-76
2022/09/10 02:29:34;;;;;;;;;;;;;;;20.55;71.01;99944.91;5363364;32;34315;-75
2022/09/10 02:32:36;;;;;;;;;;;;;;;21.23;68.65;99939.72;5385896;32;32940;-77
2022/09/10 02:35:37;;;;;;;;;;;;;;;20.93;67.64;99932.66;5362064;32;33435;-73
2022/09/10 02:38:39;;;;;;;;;;;;;;;21.42;65.89;99940.75;5389494;32;33051;-72
2022/09/10 02:41:41;;;;;;;;;;;;;;;20.41;69.02;99934.53;5378833;32;34028;-74
2022/09/10 02:44:43;;;;;;;;;;;;;;;20.12;68.31;99929.06;5379947;32;33213;-77
2022/09/10 02:47:45;;;;;;;;;;;;;;;21.01;64.60;99918.59;5381354;32;33435;-77
2022/09/10 02:50:47;;;;;;;;;;;;;;;21.76;60.79;99904.53;5363148;32;36443;-74
2022/09/10 02:53:49;;;;;;;;;;;;;;;20.99;64.25;99923.22;5388041;32;33817;-76
2022/09/10 02:56:51;;;;;;;;;;;;;;;20.40;65.63;99916.81;5346889;32;34710;-74
2022/09/10 02:59:55;;;;;;;;;;;;;;;21.14;63.78;99923.69;5372237;32;34011;-75
2022/09/10 03:02:57;;;;;;;;;;;;;;;21.17;63.06;99934.06;5373377;32;33918;-77
2022/09/10 03:06:04;;;;;;;;;;;;;;;20.97;61.79;99931.38;5378093;32;33707;-77
2022/09/10 03:09:05;;;;;;;;;;;;;;;21.09;61.25;99943.62;5364317;32;34387;-73
2022/09/10 03:12:07;;;;;;;;;;;;;;;20.45;61.50;99943.16;5368665;32;33497;-74
2022/09/10 03:15:09;;;;;;;;;;;;;;;20.15;63.38;99946.59;5382774;32;33402;-73
2022/09/10 03:18:11;;;;;;;;;;;;;;;19.83;63.79;99952.88;5370944;32;33473;-76
2022/09/10 03:21:14;;;;;;;;;;;;;;;19.85;62.91;99937.59;5391725;32;33544;-73
2022/09/10 03:24:16;;;;;;;;;;;;;;;20.16;62.43;99943.00;5368774;32;32961;-73
2022/09/10 03:27:19;;;;;;;;;;;;;;;19.80;64.06;99939.81;5382655;32;45015;-75
2022/09/10 03:30:21;;;;;;;;;;;;;;;20.16;62.42;99938.50;5376268;32;33688;-76
2022/09/10 03:33:23;;;;;;;;;;;;;;;19.54;64.53;99946.44;5360646;32;33614;-75
2022/09/10 03:36:30;;;;;;;;;;;;;;;20.45;61.38;99937.81;5395379;32;33820;-76
2022/09/10 03:39:31;;;;;;;;;;;;;;;20.06;62.08;99934.91;5353822;32;33889;-73
2022/09/10 03:42:33;;;;;;;;;;;;;;;20.08;62.07;99940.13;5390811;32;33013;-73
2022/09/10 03:45:35;;;;;;;;;;;;;;;20.17;61.81;99934.00;5364628;32;33500;-75
2022/09/10 03:48:38;;;;;;;;;;;;;;;19.88;62.30;99934.66;5376919;32;33937;-74
2022/09/10 03:51:40;;;;;;;;;;;;;;;19.52;63.50;99927.94;5381241;32;34119;-76
2022/09/10 03:54:42;;;;;;;;;;;;;;;20.61;59.63;99938.19;5356268;32;35574;-73
2022/09/10 03:57:44;;;;;;;;;;;;;;;20.62;58.55;99937.19;5375331;32;34471;-72
2022/09/10 04:00:46;;;;;;;;;;;;;;;20.44;59.70;99941.44;5381616;32;33431;-73
2022/09/10 04:03:48;;;;;;;;;;;;;;;19.20;63.61;99946.56;5372387;32;45209;-73
2022/09/10 04:06:51;;;;;;;;;;;;;;;19.44;62.79;99936.53;5364988;32;33011;-74
2022/09/10 04:09:53;;;;;;;;;;;;;;;20.19;59.62;99948.06;5366716;32;33979;-75
2022/09/10 04:12:55;;;;;;;;;;;;;;;20.39;58.43;99928.47;5384268;32;34133;-73
2022/09/10 04:15:59;;;;;;;;;;;;;;;19.70;60.24;99930.88;5373475;32;33546;-74
2022/09/10 04:19:01;;;;;;;;;;;;;;;20.24;58.71;99935.16;5385625;32;33430;-75
2022/09/10 04:22:03;;;;;;;;;;;;;;;19.31;61.69;99949.19;5378020;32;33049;-74
2022/09/10 04:25:05;;;;;;;;;;;;;;;19.13;62.21;99958.72;5381200;32;34270;-73
2022/09/10 04:28:07;;;;;;;;;;;;;;;20.15;58.89;99950.13;5375209;32;32639;-74
2022/09/10 04:31:09;;;;;;;;;;;;;;;19.54;61.02;99947.28;5377083;32;35020;-73
2022/09/10 04:34:11;;;;;;;;;;;;;;;19.06;62.18;99941.50;5380058;32;34102;-76
2022/09/10 04:37:13;;;;;;;;;;;;;;;19.05;63.77;99950.47;5380124;32;33698;-73
2022/09/10 04:40:19;;;;;;;;;;;;;;;19.61;60.89;99958.31;5378577;32;45307;-73
2022/09/10 04:43:23;;;;;;;;;;;;;;;19.12;62.95;99957.00;5373081;32;33676;-76
2022/09/10 04:46:25;;;;;;;;;;;;;;;19.81;60.49;99960.16;5382319;32;33979;-76
2022/09/10 04:49:26;;;;;;;;;;;;;;;19.39;61.82;99968.06;5366849;32;33398;-74
2022/09/10 04:52:28;;;;;;;;;;;;;;;19.06;62.76;99970.81;5370349;32;33101;-76
2022/09/10 04:55:30;;;;;;;;;;;;;;;18.86;63.83;99967.09;5363529;32;33868;-73
2022/09/10 04:58:32;;;;;;;;;;;;;;;19.59;61.33;99966.44;5363254;32;34002;-74
2022/09/10 05:01:39;;;;;;;;;;;;;;;19.67;61.28;99973.81;5382368;32;34642;-74
2022/09/10 05:04:41;;;;;;;;;;;;;;;19.13;63.16;99969.34;5366505;32;32735;-76
2022/09/10 05:07:43;;;;;;;;;;;;;;;19.55;61.33;99966.78;5373972;32;32973;-74
2022/09/10 05:10:45;;;;;;;;;;;;;;;19.44;61.44;99960.53;5363785;32;33914;-74
2022/09/10 05:13:47;;;;;;;;;;;;;;;20.35;58.89;99953.78;5369577;32;33752;-76
2022/09/10 05:16:49;;;;;;;;;;;;;;;19.99;59.68;99953.28;5379704;32;45214;-75
2022/09/10 05:19:51;;;;;;;;;;;;;;;19.08;62.97;99952.91;5379197;32;34085;-76
2022/09/10 05:22:53;;;;;;;;;;;;;;;18.82;63.78;99961.19;5390359;32;33693;-78
2022/09/10 05:25:55;;;;;;;;;;;;;;;19.22;61.27;99965.94;5360301;32;33502;-72
2022/09/10 05:28:58;;;;;;;;;;;;;;;19.39;61.69;99948.56;5371172;32;35850;-73
2022/09/10 05:32:00;;;;;;;;;;;;;;;19.48;61.22;99964.63;5370963;32;35561;-76
2022/09/10 05:35:04;;;;;;;;;;;;;;;19.37;61.23;99964.66;5363896;32;33884;-73
2022/09/10 05:38:07;;;;;;;;;;;;;;;19.40;61.26;99987.56;5387338;32;34401;-76
2022/09/10 05:41:09;;;;;;;;;;;;;;;19.07;62.98;99985.84;5361508;32;33881;-74
2022/09/10 05:44:12;;;;;;;;;;;;;;;20.55;57.71;99971.59;5385870;32;33143;-76
2022/09/10 05:47:14;;;;;;;;;;;;;;;20.16;58.60;99972.34;5376326;32;32978;-74
2022/09/10 05:50:16;;;;;;;;;;;;;;;19.54;60.43;99978.44;5371851;32;33398;-76
2022/09/10 05:53:18;;;;;;;;;;;;;;;20.15;58.67;99967.94;5376618;32;44656;-75
2022/09/10 05:56:20;;;;;;;;;;;;;;;20.14;58.68;99971.59;5342242;32;33733;-75
2022/09/10 05:59:22;;;;;;;;;;;;;;;19.53;60.45;99974.09;5384761;32;35797;-76
2022/09/10 06:02:25;;;;;;;;;;;;;;;20.74;57.13;99975.31;5373611;32;33110;-77
2022/09/10 06:05:27;;;;;;;;;;;;;;;20.94;56.33;99971.72;5383319;32;33977;-78
2022/09/10 06:08:30;;;;;;;;;;;;;;;21.26;55.81;99965.34;5367081;32;34478;-74
2022/09/10 06:11:32;;;;;;;;;;;;;;;20.05;59.63;99972.41;5375651;32;33868;-74
2022/09/10 06:14:34;;;;;;;;;;;;;;;19.99;60.37;99961.28;5378146;32;33882;-77
2022/09/10 06:17:37;;;;;;;;;;;;;;;19.65;60.98;99971.28;5373977;32;34346;-73
2022/09/10 06:20:39;;;;;;;;;;;;;;;20.10;59.92;99971.03;5398413;32;33825;-76
2022/09/10 06:23:41;;;;;;;;;;;;;;;19.66;61.41;99966.78;5370987;32;33699;-76
2022/09/10 06:26:43;;;;;;;;;;;;;;;20.23;62.69;99960.16;5382601;32;33732;-76
2022/09/10 06:29:46;;;;;;;;;;;;;;;20.64;59.79;99955.75;5379394;32;33686;-76
2022/09/10 06:32:48;;;;;;;;;;;;;;;20.57;59.71;99962.59;5383035;32;45454;-77
2022/09/10 06:35:54;;;;;;;;;;;;;;;20.78;61.17;99947.34;5383891;32;34949;-73
2022/09/10 06:38:56;;;;;;;;;;;;;;;21.22;58.80;99954.06;5357423;32;33587;-77
2022/09/10 06:41:59;;;;;;;;;;;;;;;22.36;54.07;99956.00;5395402;32;33779;-73
2022/09/10 06:45:00;;;;;;;;;;;;;;;20.99;58.09;99958.78;5363233;32;33752;-76
2022/09/10 06:48:02;;;;;;;;;;;;;;;21.82;55.59;99951.28;5389224;32;33785;-75
2022/09/10 06:51:24;;;;;;;;;;;;;;;21.55;55.81;99957.34;5374055;32;45523;-74
2022/09/10 06:54:26;;;;;;;;;;;;;;;23.00;52.19;99948.13;5347348;32;33625;-77
2022/09/10 06:57:28;;;;;;;;;;;;;;;22.60;52.70;99955.47;5378463;32;34216;-76
2022/09/10 07:00:31;;;;;;;;;;;;;;;22.58;53.05;99968.19;5362914;32;33749;-76
2022/09/10 07:03:33;;;;;;;;;;;;;;;21.90;54.94;99986.22;5387964;32;33942;-74
2022/09/10 07:06:35;;;;;;;;;;;;;;;20.83;58.14;99994.03;5372277;32;33496;-72
2022/09/10 07:09:37;;;;;;;;;;;;;;;21.64;55.75;99991.28;5368044;32;32933;-73
2022/09/10 07:12:38;;;;;;;;;;;;;;;21.36;56.85;99995.59;5373522;32;33882;-77
2022/09/10 07:15:45;;;;;;;;;;;;;;;21.16;57.32;99993.84;5361072;32;33602;-77
2022/09/10 07:18:48;;;;;;;;;;;;;;;20.39;59.48;99995.22;5375897;32;37190;-74
2022/09/10 07:21:50;;;;;;;;;;;;;;;21.07;57.94;100001.72;5369711;32;34111;-74
2022/09/10 07:24:53;;;;;;;;;;;;;;;19.51;63.86;100016.81;5368654;32;35822;-77
2022/09/10 07:27:54;;;;;;;;;;;;;;;20.55;61.52;100002.78;5372330;32;33582;-75
2022/09/10 07:30:57;;;;;;;;;;;;;;;20.24;64.78;100008.06;5385725;32;33582;-76
2022/09/10 07:34:00;;;;;;;;;;;;;;;19.77;66.16;100011.19;5363267;32;34923;-73
2022/09/10 07:37:02;;;;;;;;;;;;;;;20.12;64.63;100002.91;5374907;32;33675;-73
2022/09/10 07:40:04;;;;;;;;;;;;;;;20.33;63.71;100019.75;5381153;32;33696;-76
2022/09/10 07:43:07;;;;;;;;;;;;;;;20.91;63.86;100009.38;5371873;32;32916;-76
2022/09/10 07:46:16;;;;;;;;;;;;;;;20.46;63.69;100017.75;5390613;32;33966;-73
2022/09/10 07:49:19;;;;;;;;;;;;;;;20.41;64.54;100019.94;5353858;32;45851;-75
2022/09/10 07:52:21;;;;;;;;;;;;;;;19.98;65.71;100033.44;5374535;32;34252;-77
2022/09/10 07:55:23;;;;;;;;;;;;;;;20.26;67.39;100037.25;5355569;32;33748;-76
2022/09/10 07:58:25;;;;;;;;;;;;;;;19.72;68.71;100040.94;5365362;32;34349;-75
2022/09/10 08:01:27;;;;;;;;;;;;;;;20.62;65.55;100035.12;5392789;32;33651;-73
2022/09/10 08:04:30;;;;;;;;;;;;;;;20.24;66.62;100037.41;5364975;32;34331;-73
2022/09/10 08:07:37;;;;;;;;;;;;;;;21.12;63.42;100040.53;5379211;32;34080;-74
2022/09/10 08:10:39;;;;;;;;;;;;;;;20.75;62.59;100041.09;5362405;32;33716;-74
2022/09/10 08:13:43;;;;;;;;;;;;;;;20.76;65.65;100040.13;5372741;32;34406;-74
2022/09/10 08:16:45;;;;;;;;;;;;;;;21.04;63.12;100043.87;5382465;32;33295;-77
2022/09/10 08:19:49;;;;;;;;;;;;;;;20.82;60.95;100060.94;5363938;32;36016;-76
2022/09/10 08:22:51;;;;;;;;;;;;;;;21.04;60.72;100050.06;5391423;32;33839;-76
2022/09/10 08:25:54;;;;;;;;;;;;;;;20.99;61.62;100046.94;5374492;32;33411;-74
2022/09/10 08:28:56;;;;;;;;;;;;;;;21.59;58.30;100044.34;5386946;32;34106;-76
2022/09/10 08:31:58;;;;;;;;;;;;;;;22.55;56.45;100048.81;5376385;32;33600;-77
2022/09/10 08:35:03;;;;;;;;;;;;;;;23.66;51.99;100044.41;5362677;32;34128;-76
2022/09/10 08:38:05;;;;;;;;;;;;;;;24.53;50.16;100040.94;5390926;32;34590;-77
2022/09/10 08:41:20;;;;;;;;;;;;;;;23.42;53.65;100045.78;5362645;32;33690;-77
2022/09/10 08:44:29;;;;;;;;;;;;;;;24.26;51.03;100037.37;5384897;32;44702;-76
2022/09/10 08:47:50;;;;;;;;;;;;;;;24.57;49.97;100043.16;5375998;32;31777;-74
2022/09/10 08:50:59;;;;;;;;;;;;;;;24.25;50.70;100040.22;5343773;32;45367;-74
2022/09/10 08:54:20;;;;;;;;;;;;;;;24.98;50.14;100035.31;5363902;32;34371;-75
2022/09/10 08:57:25;;;;;;;;;;;;;;;25.26;47.20;100033.28;5350851;32;45111;-78
2022/09/10 09:00:32;;;;;;;;;;;;;;;24.43;48.70;100035.69;5394684;32;33677;-76
2022/09/10 09:03:36;;;;;;;;;;;;;;;24.94;47.47;100027.75;5369433;32;33459;-78
2022/09/10 09:06:48;;;;;;;;;;;;;;;24.20;49.94;100034.47;5377661;32;33722;-76
2022/09/10 09:09:50;;;;;;;;;;;;;;;24.65;46.94;100036.16;5365371;32;45297;-74
2022/09/10 09:13:04;;;;;;;;;;;;;;;23.43;48.53;100041.25;5328032;32;937200;-76
2022/09/10 09:16:09;;;;;;;;;;;;;;;23.45;48.57;100044.66;5389618;32;34306;-74
2022/09/10 09:19:16;;;;;;;;;;;;;;;23.89;48.37;100050.13;5368938;32;33061;-77
2022/09/10 09:22:19;;;;;;;;;;;;;;;22.80;49.00;100057.19;5382252;32;42994;-76
2022/09/10 09:25:26;;;;;;;;;;;;;;;22.25;50.27;100051.69;5384581;32;34579;-73
2022/09/10 09:28:28;;;;;;;;;;;;;;;22.34;49.75;100054.34;5358741;32;33842;-73
2022/09/10 09:31:31;;;;;;;;;;;;;;;21.75;51.65;100052.66;5381376;32;34985;-76
2022/09/10 09:34:35;;;;;;;;;;;;;;;22.33;51.28;100054.50;5351054;32;34426;-75
2022/09/10 09:37:37;;;;;;;;;;;;;;;22.94;48.94;100057.59;5391971;32;33019;-73
2022/09/10 09:40:57;;;;;;;;;;;;;;;23.49;48.61;100056.75;5346573;32;31394;-78
2022/09/10 09:43:59;;;;;;;;;;;;;;;23.47;48.24;100039.97;5369753;32;33809;-73
2022/09/10 09:47:01;;;;;;;;;;;;;;;23.02;49.01;100039.94;5385399;32;34286;-73
2022/09/10 09:50:03;;;;;;;;;;;;;;;23.30;48.37;100043.47;5361362;32;33550;-73
2022/09/10 09:53:05;;;;;;;;;;;;;;;23.95;46.75;100041.47;5387680;32;32937;-76
2022/09/10 09:56:16;;;;;;;;;;;;;;;24.23;45.93;100042.22;5352009;32;33132;-74
2022/09/10 09:59:29;;;;;;;;;;;;;;;24.14;45.79;100018.97;5363951;32;43529;-73
2022/09/10 10:02:30;;;;;;;;;;;;;;;24.30;46.37;100021.81;5377132;32;33575;-76
2022/09/10 10:05:32;;;;;;;;;;;;;;;24.27;45.39;100017.56;5364224;32;33272;-77
2022/09/10 10:08:54;;;;;;;;;;;;;;;24.81;43.97;100015.59;5383745;32;33674;-77
2022/09/10 10:11:58;;;;;;;;;;;;;;;24.62;44.40;100007.78;5353794;32;43267;-74
2022/09/10 10:15:01;;;;;;;;;;;;;;;25.20;43.43;100006.19;5377878;32;33506;-76
2022/09/10 10:18:26;;;;;;;;;;;;;;;25.21;42.16;99992.59;5370078;32;33855;-80
2022/09/10 10:21:29;;;;;;;;;;;;;;;25.87;40.53;99999.78;5361681;32;34648;-74
2022/09/10 10:24:32;;;;;;;;;;;;;;;24.54;41.73;100002.34;5379799;32;34095;-74
2022/09/10 10:27:34;;;;;;;;;;;;;;;24.78;41.34;99996.25;5374893;32;33225;-77
2022/09/10 10:30:36;;;;;;;;;;;;;;;24.65;41.74;99987.78;5377794;32;33478;-77
2022/09/10 10:33:41;;;;;;;;;;;;;;;24.07;41.40;99989.22;5367345;32;34516;-77
2022/09/10 10:37:01;;;;;;;;;;;;;;;25.36;39.14;99992.78;5381241;32;35295;-77
2022/09/10 10:40:25;;;;;;;;;;;;;;;25.96;37.74;99986.34;5378231;32;34143;-77
2022/09/10 10:43:49;;;;;;;;;;;;;;;25.02;39.32;99990.12;5367518;32;35604;-75
2022/09/10 10:47:10;;;;;;;;;;;;;;;25.09;39.52;99978.59;5379193;32;47514;-73
2022/09/10 10:50:20;;;;;;;;;;;;;;;25.50;38.40;99970.59;5370382;32;34393;-74
2022/09/10 10:53:25;;;;;;;;;;;;;;;26.16;37.11;99972.34;5366831;32;47099;-74
2022/09/10 10:56:35;;;;;;;;;;;;;;;25.36;37.56;99972.09;5359229;32;34248;-77
2022/09/10 10:59:39;;;;;;;;;;;;;;;26.33;36.69;99973.13;5352036;32;33705;-78
2022/09/10 11:02:44;;;;;;;;;;;;;;;25.83;36.26;99973.38;5387574;32;32852;-77
2022/09/10 11:05:55;;;;;;;;;;;;;;;26.53;34.81;99967.41;5379988;32;33365;-77
2022/09/10 11:08:58;;;;;;;;;;;;;;;26.33;34.59;99967.75;5352565;32;44948;-74
2022/09/10 11:12:01;;;;;;;;;;;;;;;26.20;35.03;99956.66;5372090;32;33074;-73
2022/09/10 11:15:22;;;;;;;;;;;;;;;26.57;34.01;99974.97;5349170;32;32453;-73
2022/09/10 11:18:27;;;;;;;;;;;;;;;26.28;34.17;99970.16;5387229;32;46259;-74
2022/09/10 11:21:32;;;;;;;;;;;;;;;26.76;33.12;99967.50;5355190;32;33841;-73
2022/09/10 11:24:43;;;;;;;;;;;;;;;26.92;32.80;99970.13;5366166;32;33811;-76
2022/09/10 11:27:48;;;;;;;;;;;;;;;28.93;30.18;99958.88;5392755;32;33125;-79
2022/09/10 11:30:55;;;;;;;;;;;;;;;29.51;29.15;99946.22;5345058;32;45315;-77
2022/09/10 11:34:04;;;;;;;;;;;;;;;29.72;28.70;99958.91;5386283;32;33282;-77
2022/09/10 11:37:19;;;;;;;;;;;;;;;30.10;28.60;99954.06;5374128;32;33092;-73
2022/09/10 11:40:34;;;;;;;;;;;;;;;29.09;29.76;99961.34;5350484;32;45282;-76
2022/09/10 11:43:36;;;;;;;;;;;;;;;29.07;30.02;99959.88;5375799;32;34835;-74
2022/09/10 11:46:38;;;;;;;;;;;;;;;27.39;32.07;99953.88;5366325;32;34033;-77
2022/09/10 11:50:01;;;;;;;;;;;;;;;26.92;32.90;99965.59;5368453;32;33985;-74
2022/09/10 11:53:06;;;;;;;;;;;;;;;26.58;33.68;99954.25;5370462;32;34653;-74
2022/09/10 11:56:14;;;;;;;;;;;;;;;25.85;34.67;99953.34;5349273;32;33669;-75
2022/09/10 11:59:35;;;;;;;;;;;;;;;26.02;34.37;99947.94;5380863;32;33067;-73
2022/09/10 12:02:49;;;;;;;;;;;;;;;26.58;33.40;99944.31;5369506;32;33098;-74
2022/09/10 12:05:54;;;;;;;;;;;;;;;28.17;31.10;99941.09;5350296;32;44772;-77
2022/09/10 12:09:05;;;;;;;;;;;;;;;29.55;28.74;99935.81;5368624;32;33226;-72
2022/09/10 12:12:30;;;;;;;;;;;;;;;31.14;26.15;99945.03;5361009;32;33855;-75
2022/09/10 12:15:35;;;;;;;;;;;;;;;28.81;28.90;99939.53;5366641;32;34275;-78
2022/09/10 12:18:42;;;;;;;;;;;;;;;28.43;29.76;99949.63;5356017;32;34110;-75
2022/09/10 12:22:13;;;;;;;;;;;;;;;30.03;27.55;99947.72;5394360;32;33369;-76
2022/09/10 12:25:15;;;;;;;;;;;;;;;31.66;24.59;99952.47;5367813;32;34704;-74
2022/09/10 12:28:36;;;;;;;;;;;;;;;31.35;24.61;99944.06;5372455;32;35964;-73
2022/09/10 12:31:56;;;;;;;;;;;;;;;33.12;22.93;99936.78;5383394;32;33724;-76
2022/09/10 12:35:25;;;;;;;;;;;;;;;31.14;24.44;99948.59;5363838;32;33066;-74
2022/09/10 12:38:46;;;;;;;;;;;;;;;30.60;25.58;99941.25;5378983;32;44543;-79
2022/09/10 12:41:48;;;;;;;;;;;;;;;28.26;28.98;99950.78;5394881;32;45053;-77
2022/09/10 12:44:50;;;;;;;;;;;;;;;27.99;30.09;99944.97;5363016;32;33331;-76
2022/09/10 12:47:52;;;;;;;;;;;;;;;26.98;31.97;99946.00;5386811;32;34204;-76
2022/09/10 12:50:59;;;;;;;;;;;;;;;25.51;34.54;99947.25;5374393;32;33307;-76
2022/09/10 12:54:10;;;;;;;;;;;;;;;27.18;32.01;99932.09;5371912;32;34324;-74
2022/09/10 12:57:25;;;;;;;;;;;;;;;28.39;29.74;99921.28;5351341;32;34475;-78
2022/09/10 13:00:30;;;;;;;;;;;;;;;27.71;30.50;99946.59;5346979;32;45015;-73
2022/09/10 13:03:31;;;;;;;;;;;;;;;28.15;29.40;99930.50;5375240;32;33695;-73
2022/09/10 13:06:33;;;;;;;;;;;;;;;28.00;29.09;99925.03;5364627;32;32989;-76
2022/09/10 13:09:35;;;;;;;;;;;;;;;30.50;25.53;99929.91;5382043;32;32910;-73
2022/09/10 13:12:39;;;;;;;;;;;;;;;31.85;23.98;99920.13;5367835;32;34001;-75
2022/09/10 13:15:42;;;;;;;;;;;;;;;30.05;26.15;99923.97;5367225;32;33412;-74
2022/09/10 13:18:45;;;;;;;;;;;;;;;28.71;28.49;99922.75;5367705;32;34557;-76
2022/09/10 13:21:47;;;;;;;;;;;;;;;27.60;30.68;99917.28;5368805;32;33892;-77
2022/09/10 13:24:59;;;;;;;;;;;;;;;28.39;29.63;99912.34;5381702;32;33825;-73
2022/09/10 13:28:19;;;;;;;;;;;;;;;27.25;30.89;99920.41;5369829;32;34039;-77
2022/09/10 13:31:28;;;;;;;;;;;;;;;26.46;32.84;99924.13;5376405;32;46918;-73
2022/09/10 13:34:39;;;;;;;;;;;;;;;26.75;32.33;99937.00;5361237;32;33701;-73
2022/09/10 13:37:53;;;;;;;;;;;;;;;27.30;31.63;99946.84;5360161;32;33648;-77
2022/09/10 13:41:05;;;;;;;;;;;;;;;26.04;33.94;99940.56;5345530;32;44591;-73
2022/09/10 13:44:07;;;;;;;;;;;;;;;26.05;34.18;99934.16;5368282;32;34097;-77
2022/09/10 13:47:10;;;;;;;;;;;;;;;25.59;34.30;99939.19;5382759;32;33004;-76
2022/09/10 13:50:22;;;;;;;;;;;;;;;25.72;33.49;99936.84;5351824;32;33192;-74
2022/09/10 13:53:25;;;;;;;;;;;;;;;25.47;33.74;99935.16;5358759;32;45085;-73
2022/09/10 13:56:27;;;;;;;;;;;;;;;26.56;30.89;99924.78;5369411;32;34367;-73
2022/09/10 13:59:29;;;;;;;;;;;;;;;25.57;32.48;99928.59;5361282;32;34453;-76
2022/09/10 14:02:41;;;;;;;;;;;;;;;25.88;31.99;99918.00;5378458;32;34630;-73
2022/09/10 14:05:45;;;;;;;;;;;;;;;25.64;32.69;99918.00;5374413;32;33668;-77
2022/09/10 14:08:50;;;;;;;;;;;;;;;25.97;32.69;99907.25;5356002;32;44270;-73
2022/09/10 14:11:52;;;;;;;;;;;;;;;26.16;32.57;99905.00;5382195;32;34668;-76
2022/09/10 14:14:59;;;;;;;;;;;;;;;25.88;32.00;99903.69;5362891;32;33893;-72
2022/09/10 14:18:01;;;;;;;;;;;;;;;25.82;31.73;99907.06;5371293;32;33778;-78
2022/09/10 14:21:03;;;;;;;;;;;;;;;26.17;31.30;99905.84;5365613;32;33589;-74
2022/09/10 14:24:05;;;;;;;;;;;;;;;25.99;31.33;99907.91;5381732;32;33225;-77
2022/09/10 14:27:23;;;;;;;;;;;;;;;25.92;31.27;99900.50;5373150;32;33692;-78
2022/09/10 14:30:28;;;;;;;;;;;;;;;26.14;30.97;99906.19;5347480;32;42502;-74
2022/09/10 14:33:34;;;;;;;;;;;;;;;25.92;31.80;99899.66;5389176;32;34308;-75
2022/09/10 14:36:36;;;;;;;;;;;;;;;26.30;31.58;99895.37;5368221;32;33536;-74
2022/09/10 14:39:42;;;;;;;;;;;;;;;25.85;32.01;99894.13;5384274;32;32984;-73
2022/09/10 14:42:44;;;;;;;;;;;;;;;25.92;32.03;99902.37;5374042;32;32959;-76
2022/09/10 14:45:48;;;;;;;;;;;;;;;25.49;32.60;99904.38;5387887;32;33098;-77
2022/09/10 14:49:00;;;;;;;;;;;;;;;26.24;31.50;99898.75;5370581;32;45432;-73
2022/09/10 14:52:03;;;;;;;;;;;;;;;26.06;31.58;99895.44;5362771;32;33495;-74
2022/09/10 14:55:05;;;;;;;;;;;;;;;25.64;31.69;99904.56;5354906;32;34085;-73
2022/09/10 14:58:07;;;;;;;;;;;;;;;25.50;31.96;99905.19;5364477;32;33743;-76
2022/09/10 15:01:09;;;;;;;;;;;;;;;25.51;31.99;99902.37;5381120;32;34940;-78
2022/09/10 15:04:12;;;;;;;;;;;;;;;25.53;31.82;99908.41;5356680;32;33539;-74
2022/09/10 15:07:14;;;;;;;;;;;;;;;25.85;31.24;99907.59;5373717;32;33588;-77
2022/09/10 15:10:16;;;;;;;;;;;;;;;25.41;31.86;99906.22;5367021;32;34164;-77
2022/09/10 15:13:18;;;;;;;;;;;;;;;25.66;32.10;99908.75;5369162;32;45129;-76
2022/09/10 15:16:22;;;;;;;;;;;;;;;25.52;32.37;99922.03;5381767;32;33608;-78
2022/09/10 15:19:24;;;;;;;;;;;;;;;26.07;31.83;99919.50;5367466;32;34565;-75
2022/09/10 15:22:27;;;;;;;;;;;;;;;25.40;33.08;99916.13;5389005;32;33620;-77
2022/09/10 15:25:39;;;;;;;;;;;;;;;25.78;32.50;99921.91;5379523;32;34095;-78
2022/09/10 15:28:41;;;;;;;;;;;;;;;24.97;33.28;99920.72;5359239;32;33743;-77
2022/09/10 15:31:43;;;;;;;;;;;;;;;25.32;33.27;99919.66;5383852;32;35196;-75
2022/09/10 15:34:45;;;;;;;;;;;;;;;25.62;33.02;99920.84;5365888;32;32898;-74
2022/09/10 15:37:46;;;;;;;;;;;;;;;25.68;33.25;99924.72;5390761;32;34366;-73
2022/09/10 15:40:48;;;;;;;;;;;;;;;25.39;33.79;99930.59;5378312;32;44459;-73
2022/09/10 15:43:51;;;;;;;;;;;;;;;25.61;33.50;99934.47;5383089;32;34947;-74
2022/09/10 15:46:53;;;;;;;;;;;;;;;25.69;33.29;99941.69;5372168;32;33929;-78
2022/09/10 15:49:55;;;;;;;;;;;;;;;25.27;34.03;99948.91;5350767;32;33480;-78
2022/09/10 15:52:57;;;;;;;;;;;;;;;25.48;33.60;99940.34;5388089;32;33688;-73
2022/09/10 15:56:00;;;;;;;;;;;;;;;25.55;33.64;99943.22;5344795;32;34128;-77
2022/09/10 15:59:02;;;;;;;;;;;;;;;25.06;34.00;99951.22;5372186;32;34183;-73